createdAt,value
2018-11-11T00:00:07.862Z,89.1
2018-11-11T00:00:38.536Z,89.1
2018-11-11T00:01:09.082Z,89
2018-11-11T00:01:39.734Z,89
2018-11-11T00:03:01.727Z,89.1
2018-11-11T00:04:00.570Z,89
2018-11-11T00:04:59.703Z,89
2018-11-11T00:05:58.935Z,89.1
2018-11-11T00:06:58.163Z,89.2
2018-11-11T00:07:57.291Z,89.3
2018-11-11T00:08:56.239Z,89.3
2018-11-11T00:09:55.482Z,89.3
2018-11-11T00:10:54.612Z,89.5
2018-11-11T00:11:24.780Z,89.5
2018-11-11T00:12:52.700Z,89.4
2018-11-11T00:13:51.532Z,89.3
2018-11-11T00:14:50.866Z,89.6
2018-11-11T00:15:49.807Z,89.5
2018-11-11T00:16:48.655Z,89.5
2018-11-11T00:17:47.985Z,89.6
2018-11-11T00:18:46.763Z,89.6
2018-11-11T00:19:45.990Z,89.5
2018-11-11T00:20:45.336Z,89.5
2018-11-11T00:21:44.293Z,89.5
2018-11-11T00:22:43.360Z,89.5
2018-11-11T00:23:42.695Z,89.6
2018-11-11T00:24:41.539Z,89.5
2018-11-11T00:25:40.879Z,89.5
2018-11-11T00:26:39.615Z,89.5
2018-11-11T00:27:38.739Z,89.4
2018-11-11T00:28:37.878Z,89.4
2018-11-11T00:29:36.669Z,89.5
2018-11-11T00:30:35.914Z,89.4
2018-11-11T00:31:06.353Z,89.4
2018-11-11T00:32:34.160Z,89.2
2018-11-11T00:33:33.509Z,89.2
2018-11-11T00:34:32.451Z,89.2
2018-11-11T00:35:31.396Z,89.3
2018-11-11T00:36:30.623Z,89.2
2018-11-11T00:37:29.566Z,89.3
2018-11-11T00:38:28.897Z,89.2
2018-11-11T00:39:27.738Z,89.3
2018-11-11T00:40:26.774Z,89.3
2018-11-11T00:41:26.007Z,89.2
2018-11-11T00:41:56.259Z,89.2
2018-11-11T00:42:26.519Z,89.2
2018-11-11T00:43:23.947Z,89.1
2018-11-11T00:44:23.173Z,89.3
2018-11-11T00:45:22.401Z,89.3
2018-11-11T00:46:21.339Z,89.2
2018-11-11T00:47:20.572Z,89.2
2018-11-11T00:49:18.799Z,89.2
2018-11-11T00:50:17.630Z,89.2
2018-11-11T00:51:16.861Z,89
2018-11-11T00:52:15.817Z,89.1
2018-11-11T00:53:15.171Z,88.8
2018-11-11T00:54:14.013Z,88.8
2018-11-11T00:55:13.138Z,88.8
2018-11-11T00:56:11.976Z,88.8
2018-11-11T00:57:11.313Z,88.8
2018-11-11T00:58:10.032Z,88.7
2018-11-11T00:59:09.370Z,88.6
2018-11-11T01:00:08.724Z,88.6
2018-11-11T01:01:07.564Z,88.5
2018-11-11T01:02:06.899Z,88.5
2018-11-11T01:03:05.629Z,88.5
2018-11-11T01:04:05.092Z,88.4
2018-11-11T01:05:03.709Z,88.4
2018-11-11T01:06:02.942Z,88.4
2018-11-11T01:07:02.075Z,88.4
2018-11-11T01:08:01.092Z,88.4
2018-11-11T01:09:00.354Z,88.5
2018-11-11T01:09:59.587Z,88.5
2018-11-11T01:10:58.310Z,88.5
2018-11-11T01:11:57.597Z,88.4
2018-11-11T01:12:56.589Z,88.5
2018-11-11T01:13:55.821Z,88.5
2018-11-11T01:14:54.563Z,88.5
2018-11-11T01:15:53.791Z,88.4
2018-11-11T01:16:52.624Z,88.4
2018-11-11T01:17:51.972Z,88.3
2018-11-11T01:18:50.909Z,88.3
2018-11-11T01:19:50.266Z,88.3
2018-11-11T01:20:49.494Z,88.3
2018-11-11T01:21:48.329Z,88.4
2018-11-11T01:22:47.455Z,88.4
2018-11-11T01:23:46.785Z,88.6
2018-11-11T01:24:45.617Z,88.7
2018-11-11T01:25:44.853Z,88.7
2018-11-11T01:26:43.979Z,88.7
2018-11-11T01:27:42.722Z,88.7
2018-11-11T01:28:42.063Z,88.7
2018-11-11T01:29:41.011Z,88.7
2018-11-11T01:30:40.241Z,88.7
2018-11-11T01:31:39.182Z,88.8
2018-11-11T01:32:38.308Z,88.8
2018-11-11T01:33:37.253Z,88.8
2018-11-11T01:34:36.486Z,88.8
2018-11-11T01:35:35.316Z,88.9
2018-11-11T01:36:05.581Z,88.9
2018-11-11T01:36:36.235Z,88.8
2018-11-11T01:37:33.663Z,88.8
2018-11-11T01:38:33.082Z,88.9
2018-11-11T01:39:31.659Z,88.9
2018-11-11T01:40:31.003Z,89
2018-11-11T01:41:29.842Z,89.1
2018-11-11T01:42:29.283Z,89.1
2018-11-11T01:43:28.222Z,89
2018-11-11T01:44:27.452Z,89.2
2018-11-11T01:45:26.294Z,89.2
2018-11-11T01:46:25.626Z,89.3
2018-11-11T01:46:56.277Z,89.3
2018-11-11T01:47:26.524Z,89.2
2018-11-11T01:48:23.752Z,89.3
2018-11-11T01:49:22.598Z,89.3
2018-11-11T01:51:20.920Z,89.3
2018-11-11T01:52:20.145Z,89.4
2018-11-11T01:53:18.876Z,89.4
2018-11-11T01:54:18.212Z,89.4
2018-11-11T01:55:17.057Z,89.4
2018-11-11T01:56:16.399Z,89.4
2018-11-11T01:57:15.335Z,89.5
2018-11-11T01:58:14.576Z,89.5
2018-11-11T01:59:13.399Z,89.6
2018-11-11T02:00:12.739Z,89.7
2018-11-11T02:01:11.969Z,89.7
2018-11-11T02:02:10.698Z,89.6
2018-11-11T02:03:09.927Z,89.5
2018-11-11T02:04:08.949Z,89.5
2018-11-11T02:05:08.296Z,89.5
2018-11-11T02:07:06.194Z,89.5
2018-11-11T02:08:05.138Z,89.5
2018-11-11T02:09:04.378Z,89.4
2018-11-11T02:10:03.638Z,89.4
2018-11-11T02:11:02.601Z,89.3
2018-11-11T02:12:01.939Z,89.3
2018-11-11T02:13:00.568Z,89.2
2018-11-11T02:13:59.831Z,89.1
2018-11-11T02:14:58.679Z,89.2
2018-11-11T02:15:58.316Z,89.2
2018-11-11T02:16:57.056Z,89.3
2018-11-11T02:17:27.719Z,89.3
2018-11-11T02:17:58.371Z,89.1
2018-11-11T02:18:28.620Z,89.1
2018-11-11T02:18:59.062Z,89.2
2018-11-11T02:19:54.379Z,89.2
2018-11-11T02:20:53.859Z,89.2
2018-11-11T02:21:52.531Z,89.4
2018-11-11T02:22:51.779Z,89.3
2018-11-11T02:23:50.621Z,89.3
2018-11-11T02:24:50.009Z,89.3
2018-11-11T02:25:48.874Z,89.4
2018-11-11T02:26:47.896Z,89.3
2018-11-11T02:27:47.129Z,89.4
2018-11-11T02:28:17.780Z,89.4
2018-11-11T02:28:47.928Z,89.4
2018-11-11T02:29:45.150Z,89.4
2018-11-11T02:30:44.058Z,89.4
2018-11-11T02:31:43.508Z,89.5
2018-11-11T02:32:42.247Z,89.5
2018-11-11T02:33:41.593Z,89.5
2018-11-11T02:34:40.494Z,89.6
2018-11-11T02:35:39.624Z,89.7
2018-11-11T02:36:38.968Z,89.6
2018-11-11T02:37:38.473Z,89.6
2018-11-11T02:38:37.272Z,89.6
2018-11-11T02:40:35.140Z,89.8
2018-11-11T02:41:34.366Z,89.8
2018-11-11T02:42:33.106Z,89.8
2018-11-11T02:43:32.351Z,89.8
2018-11-11T02:44:31.700Z,89.9
2018-11-11T02:45:30.642Z,89.9
2018-11-11T02:46:29.886Z,89.9
2018-11-11T02:47:29.023Z,89.9
2018-11-11T02:48:27.970Z,89.8
2018-11-11T02:49:26.811Z,89.8
2018-11-11T02:50:26.042Z,89.7
2018-11-11T02:51:25.268Z,89.6
2018-11-11T02:52:24.094Z,89.6
2018-11-11T02:53:23.546Z,89.6
2018-11-11T02:54:22.481Z,89.5
2018-11-11T02:54:53.023Z,89.5
2018-11-11T02:55:23.671Z,89.4
2018-11-11T02:56:20.384Z,89.5
2018-11-11T02:57:19.835Z,89.5
2018-11-11T02:58:18.563Z,89.5
2018-11-11T02:59:17.824Z,89.5
2018-11-11T03:00:16.680Z,89.5
2018-11-11T03:01:16.171Z,89.5
2018-11-11T03:03:13.998Z,89.6
2018-11-11T03:04:13.437Z,89.9
2018-11-11T03:06:11.363Z,89.7
2018-11-11T03:07:10.700Z,89.7
2018-11-11T03:08:09.824Z,89.8
2018-11-11T03:09:08.671Z,89.8
2018-11-11T03:10:07.908Z,89.8
2018-11-11T03:11:06.870Z,90
2018-11-11T03:12:06.215Z,89.9
2018-11-11T03:14:04.436Z,90
2018-11-11T03:15:03.318Z,89.9
2018-11-11T03:16:02.066Z,90.2
2018-11-11T03:17:01.199Z,90.2
2018-11-11T03:18:00.321Z,90.2
2018-11-11T03:18:59.569Z,90.2
2018-11-11T03:19:58.938Z,90.1
2018-11-11T03:20:57.779Z,90.1
2018-11-11T03:21:57.011Z,90.1
2018-11-11T03:22:55.891Z,90.4
2018-11-11T03:23:55.222Z,90.3
2018-11-11T03:24:54.188Z,90.3
2018-11-11T03:25:53.034Z,90.4
2018-11-11T03:26:23.286Z,90.4
2018-11-11T03:27:51.315Z,90.5
2018-11-11T03:29:49.638Z,90.6
2018-11-11T03:30:48.572Z,90.6
2018-11-11T03:31:47.942Z,90.7
2018-11-11T03:32:46.823Z,90.8
2018-11-11T03:33:46.191Z,90.8
2018-11-11T03:34:45.305Z,90.7
2018-11-11T03:35:44.143Z,90.9
2018-11-11T03:36:14.684Z,90.9
2018-11-11T03:36:44.835Z,91.1
2018-11-11T03:37:15.383Z,91.1
2018-11-11T03:39:40.383Z,91.2
2018-11-11T03:40:39.828Z,91.2
2018-11-11T03:41:38.660Z,91.4
2018-11-11T03:42:37.593Z,91.4
2018-11-11T03:43:36.948Z,91.4
2018-11-11T03:44:36.185Z,91.6
2018-11-11T03:45:34.906Z,91.7
2018-11-11T03:46:34.251Z,92.1
2018-11-11T03:47:33.080Z,92
2018-11-11T03:48:32.537Z,92
2018-11-11T03:49:31.265Z,92.1
2018-11-11T03:50:30.722Z,92.2
2018-11-11T03:51:29.463Z,92.3
2018-11-11T03:52:28.808Z,92.3
2018-11-11T03:53:27.434Z,92.5
2018-11-11T03:54:26.666Z,92.6
2018-11-11T03:55:25.890Z,92.7
2018-11-11T03:57:24.120Z,92.7
2018-11-11T03:58:23.453Z,92.9
2018-11-11T03:59:22.076Z,92.9
2018-11-11T04:00:21.299Z,93
2018-11-11T04:01:20.541Z,93
2018-11-11T04:02:19.385Z,92.9
2018-11-11T04:03:18.714Z,93
2018-11-11T04:04:17.662Z,93
2018-11-11T04:05:17.013Z,93.1
2018-11-11T04:06:15.637Z,93
2018-11-11T04:08:13.978Z,93.1
2018-11-11T04:08:44.132Z,93.1
2018-11-11T04:09:14.803Z,93
2018-11-11T04:10:12.278Z,93
2018-11-11T04:11:11.231Z,93
2018-11-11T04:12:10.460Z,92.9
2018-11-11T04:13:09.831Z,93
2018-11-11T04:14:08.554Z,93
2018-11-11T04:15:07.787Z,93.1
2018-11-11T04:16:07.014Z,93.3
2018-11-11T04:17:05.835Z,93.2
2018-11-11T04:18:05.171Z,93.3
2018-11-11T04:18:35.831Z,93.3
2018-11-11T04:19:06.382Z,93.3
2018-11-11T04:20:03.094Z,93.4
2018-11-11T04:21:02.207Z,93.4
2018-11-11T04:22:01.098Z,93.7
2018-11-11T04:23:00.731Z,93.9
2018-11-11T04:23:59.583Z,93.8
2018-11-11T04:24:58.516Z,94.1
2018-11-11T04:25:57.862Z,94.3
2018-11-11T04:26:57.088Z,94.3
2018-11-11T04:27:56.037Z,94.6
2018-11-11T04:28:55.273Z,94.7
2018-11-11T04:29:54.226Z,94.8
2018-11-11T04:31:52.335Z,95.1
2018-11-11T04:32:51.267Z,95.1
2018-11-11T04:33:50.619Z,95.2
2018-11-11T04:34:49.457Z,95.2
2018-11-11T04:35:48.780Z,95.3
2018-11-11T04:36:48.018Z,95.3
2018-11-11T04:37:46.855Z,95.4
2018-11-11T04:38:46.077Z,95.4
2018-11-11T04:39:44.937Z,95.5
2018-11-11T04:40:44.178Z,95.7
2018-11-11T04:41:43.304Z,95.6
2018-11-11T04:42:42.644Z,95.7
2018-11-11T04:43:41.369Z,95.8
2018-11-11T04:44:40.603Z,95.8
2018-11-11T04:45:39.719Z,96
2018-11-11T04:46:38.560Z,96
2018-11-11T04:47:38.022Z,96.1
2018-11-11T04:48:36.765Z,96.1
2018-11-11T04:49:36.109Z,96.3
2018-11-11T04:50:34.947Z,96.3
2018-11-11T04:51:34.283Z,96.4
2018-11-11T04:52:33.115Z,96.5
2018-11-11T04:53:32.550Z,96.4
2018-11-11T04:54:31.267Z,96.6
2018-11-11T04:55:30.738Z,96.6
2018-11-11T04:56:29.718Z,96.6
2018-11-11T04:57:28.951Z,96.9
2018-11-11T04:58:27.774Z,96.9
2018-11-11T04:59:27.015Z,96.9
2018-11-11T05:00:25.848Z,96.8
2018-11-11T05:01:25.275Z,96.8
2018-11-11T05:02:24.150Z,96.8
2018-11-11T05:02:54.793Z,96.8
2018-11-11T05:03:24.944Z,96.9
2018-11-11T05:04:22.209Z,97
2018-11-11T05:05:21.745Z,96.7
2018-11-11T05:06:20.479Z,96.8
2018-11-11T05:07:19.717Z,96.8
2018-11-11T05:08:19.074Z,96.9
2018-11-11T05:09:18.083Z,97
2018-11-11T05:10:17.033Z,97
2018-11-11T05:11:16.157Z,97
2018-11-11T05:12:15.101Z,97
2018-11-11T05:12:45.656Z,97
2018-11-11T05:13:15.923Z,97
2018-11-11T05:13:46.234Z,97
2018-11-11T05:15:12.774Z,97.1
2018-11-11T05:16:11.515Z,97.1
2018-11-11T05:17:10.959Z,97.2
2018-11-11T05:18:09.910Z,97.1
2018-11-11T05:19:09.139Z,97.1
2018-11-11T05:20:08.098Z,97.1
2018-11-11T05:21:06.938Z,97.2
2018-11-11T05:22:06.170Z,97.2
2018-11-11T05:23:05.299Z,97.2
2018-11-11T05:23:36.060Z,97.2
2018-11-11T05:24:06.215Z,97.4
2018-11-11T05:24:36.652Z,97.4
2018-11-11T05:26:02.671Z,97.4
2018-11-11T05:27:01.446Z,97.4
2018-11-11T05:28:00.853Z,97.2
2018-11-11T05:29:00.201Z,97.2
2018-11-11T05:29:59.040Z,97.2
2018-11-11T05:30:58.510Z,97.3
2018-11-11T05:31:57.507Z,97.3
2018-11-11T05:32:56.337Z,97.2
2018-11-11T05:33:55.565Z,97.1
2018-11-11T05:34:54.794Z,97.1
2018-11-11T05:35:53.626Z,97
2018-11-11T05:36:52.951Z,97
2018-11-11T05:37:51.786Z,97.1
2018-11-11T05:38:51.129Z,97.2
2018-11-11T05:39:49.861Z,97.2
2018-11-11T05:40:49.235Z,97.3
2018-11-11T05:41:48.066Z,97.2
2018-11-11T05:42:47.303Z,97.2
2018-11-11T05:43:17.958Z,97.2
2018-11-11T05:44:45.467Z,97.1
2018-11-11T05:45:44.416Z,97.1
2018-11-11T05:46:43.639Z,97.1
2018-11-11T05:47:42.855Z,97
2018-11-11T05:48:42.106Z,97
2018-11-11T05:49:40.829Z,97
2018-11-11T05:50:40.273Z,97
2018-11-11T05:51:39.394Z,97.1
2018-11-11T05:52:38.119Z,97.1
2018-11-11T05:53:08.769Z,97.1
2018-11-11T05:53:39.021Z,97.2
2018-11-11T05:54:09.554Z,97.2
2018-11-11T05:54:39.983Z,97.2
2018-11-11T05:55:10.625Z,97.2
2018-11-11T05:55:41.266Z,97.3
2018-11-11T05:56:11.914Z,97.3
2018-11-11T05:56:42.164Z,97.3
2018-11-11T05:57:12.826Z,97.3
2018-11-11T05:58:32.789Z,97.4
2018-11-11T05:59:31.793Z,97.5
2018-11-11T06:00:31.127Z,97.4
2018-11-11T06:01:30.354Z,97.5
2018-11-11T06:02:29.289Z,97.5
2018-11-11T06:03:28.232Z,97.5
2018-11-11T06:03:58.794Z,97.5
2018-11-11T06:04:29.452Z,97.5
2018-11-11T06:04:59.700Z,97.5
2018-11-11T06:05:30.354Z,97.5
2018-11-11T06:06:00.638Z,97.5
2018-11-11T06:06:31.181Z,97.5
2018-11-11T06:07:01.443Z,97.5
2018-11-11T06:08:23.923Z,97.5
2018-11-11T06:09:22.757Z,97.4
2018-11-11T06:10:21.996Z,97.5
2018-11-11T06:11:21.354Z,97.3
2018-11-11T06:12:20.585Z,97.3
2018-11-11T06:13:19.305Z,97.4
2018-11-11T06:14:18.748Z,97.3
2018-11-11T06:15:17.687Z,97.3
2018-11-11T06:16:16.522Z,97.3
2018-11-11T06:17:15.747Z,97.2
2018-11-11T06:18:14.977Z,97.3
2018-11-11T06:19:13.698Z,97.4
2018-11-11T06:20:13.153Z,97.3
2018-11-11T06:21:12.486Z,97.2
2018-11-11T06:22:11.412Z,97.1
2018-11-11T06:23:10.347Z,97.1
2018-11-11T06:24:09.579Z,97.1
2018-11-11T06:24:40.229Z,97.1
2018-11-11T06:25:10.478Z,97.1
2018-11-11T06:26:07.801Z,97.2
2018-11-11T06:27:06.636Z,97.1
2018-11-11T06:28:05.979Z,97.2
2018-11-11T06:29:04.827Z,97.3
2018-11-11T06:31:03.047Z,97.1
2018-11-11T06:32:02.383Z,97.2
2018-11-11T06:33:01.104Z,97.2
2018-11-11T06:34:00.633Z,97.3
2018-11-11T06:34:30.968Z,97.3
2018-11-11T06:35:01.625Z,97.1
2018-11-11T06:35:32.058Z,97.1
2018-11-11T06:36:02.718Z,97.1
2018-11-11T06:36:33.044Z,97.1
2018-11-11T06:37:57.146Z,97.1
2018-11-11T06:38:55.981Z,97.2
2018-11-11T06:39:55.322Z,97.2
2018-11-11T06:40:54.158Z,97.3
2018-11-11T06:41:53.379Z,97.4
2018-11-11T06:42:52.495Z,97.4
2018-11-11T06:44:50.708Z,97.3
2018-11-11T06:45:21.364Z,97.3
2018-11-11T06:45:51.906Z,97.3
2018-11-11T06:46:22.552Z,97.3
2018-11-11T06:47:47.732Z,97.1
2018-11-11T06:48:46.947Z,97
2018-11-11T06:51:44.443Z,97
2018-11-11T06:52:43.284Z,97
2018-11-11T06:53:42.511Z,96.9
2018-11-11T06:54:41.738Z,96.7
2018-11-11T06:55:40.578Z,96.6
2018-11-11T06:56:39.798Z,96.7
2018-11-11T06:57:39.135Z,96.7
2018-11-11T06:58:37.906Z,96.8
2018-11-11T06:59:37.135Z,96.9
2018-11-11T07:00:36.464Z,96.8
2018-11-11T07:01:35.298Z,96.7
2018-11-11T07:02:34.529Z,96.7
2018-11-11T07:03:33.647Z,96.7
2018-11-11T07:04:32.476Z,96.6
2018-11-11T07:05:31.812Z,96.7
2018-11-11T07:06:30.643Z,96.7
2018-11-11T07:07:30.046Z,96.8
2018-11-11T07:08:28.935Z,96.6
2018-11-11T07:09:28.377Z,96.6
2018-11-11T07:10:27.118Z,96.8
2018-11-11T07:11:26.452Z,96.8
2018-11-11T07:12:25.682Z,96.7
2018-11-11T07:13:24.396Z,96.6
2018-11-11T07:15:22.497Z,96.8
2018-11-11T07:16:21.829Z,96.8
2018-11-11T07:17:21.050Z,96.7
2018-11-11T07:18:20.383Z,96.6
2018-11-11T07:19:19.322Z,96.6
2018-11-11T07:20:18.264Z,96.5
2018-11-11T07:21:17.492Z,96.5
2018-11-11T07:22:16.730Z,96.5
2018-11-11T07:23:15.557Z,96.3
2018-11-11T07:25:13.781Z,96.2
2018-11-11T07:26:13.024Z,96.2
2018-11-11T07:27:12.148Z,96.3
2018-11-11T07:28:10.983Z,96.3
2018-11-11T07:30:09.209Z,96.1
2018-11-11T07:32:07.714Z,95.4
2018-11-11T07:33:06.836Z,95.4
2018-11-11T07:34:05.666Z,95.3
2018-11-11T07:35:05.002Z,95.3
2018-11-11T07:36:04.278Z,95.2
2018-11-11T07:37:03.322Z,95.1
2018-11-11T07:38:02.167Z,95.2
2018-11-11T07:39:01.178Z,95.2
2018-11-11T07:40:00.411Z,94.7
2018-11-11T07:40:59.643Z,94.5
2018-11-11T07:41:30.199Z,94.5
2018-11-11T07:42:00.858Z,94.6
2018-11-11T07:42:31.507Z,94.6
2018-11-11T07:43:01.952Z,94.5
2018-11-11T07:43:56.942Z,94.6
2018-11-11T07:44:56.181Z,94.5
2018-11-11T07:45:55.120Z,94.5
2018-11-11T07:46:53.949Z,94.7
2018-11-11T07:47:53.607Z,94.5
2018-11-11T07:48:52.614Z,94.5
2018-11-11T07:49:51.452Z,94.5
2018-11-11T07:50:50.669Z,94.4
2018-11-11T07:51:50.096Z,94.5
2018-11-11T07:52:20.317Z,94.5
2018-11-11T07:52:50.564Z,94.7
2018-11-11T07:53:47.995Z,94.5
2018-11-11T07:54:47.173Z,94.5
2018-11-11T07:55:46.165Z,94.5
2018-11-11T07:56:45.145Z,94
2018-11-11T07:57:44.394Z,93.7
2018-11-11T07:58:43.244Z,94
2018-11-11T07:59:42.706Z,94.2
2018-11-11T08:00:41.943Z,94.2
2018-11-11T08:01:40.772Z,94.2
2018-11-11T08:02:40.204Z,93.8
2018-11-11T08:03:38.940Z,93.7
2018-11-11T08:04:38.393Z,93.6
2018-11-11T08:06:36.603Z,93.6
2018-11-11T08:07:35.331Z,93.2
2018-11-11T08:08:34.560Z,93.3
2018-11-11T08:09:33.812Z,93.7
2018-11-11T08:11:31.915Z,93.9
2018-11-11T08:12:02.254Z,93.9
2018-11-11T08:12:32.797Z,93.4
2018-11-11T08:13:03.061Z,93.4
2018-11-11T08:14:29.457Z,93.3
2018-11-11T08:15:28.396Z,93.1
2018-11-11T08:17:26.713Z,93.4
2018-11-11T08:18:26.048Z,93.3
2018-11-11T08:19:24.815Z,93.3
2018-11-11T08:20:23.944Z,93.3
2018-11-11T08:21:23.271Z,93.4
2018-11-11T08:22:22.506Z,93.3
2018-11-11T08:22:52.751Z,93.3
2018-11-11T08:23:23.181Z,93.2
2018-11-11T08:23:53.824Z,93.2
2018-11-11T08:24:24.260Z,93.1
2018-11-11T08:24:54.809Z,93.1
2018-11-11T08:25:25.555Z,92.9
2018-11-11T08:26:18.977Z,92.6
2018-11-11T08:27:17.804Z,92.4
2018-11-11T08:28:16.746Z,92.4
2018-11-11T08:29:16.199Z,92.5
2018-11-11T08:30:15.028Z,92.8
2018-11-11T08:31:14.038Z,92.5
2018-11-11T08:32:13.180Z,92.3
2018-11-11T08:33:12.414Z,92.6
2018-11-11T08:33:43.169Z,92.6
2018-11-11T08:35:10.578Z,92.4
2018-11-11T08:36:09.907Z,92.6
2018-11-11T08:37:09.135Z,92.5
2018-11-11T08:38:07.864Z,92.9
2018-11-11T08:39:07.193Z,92.7
2018-11-11T08:40:06.129Z,93
2018-11-11T08:41:05.374Z,93.1
2018-11-11T08:42:04.722Z,92.8
2018-11-11T08:43:03.576Z,91.6
2018-11-11T08:44:03.014Z,91.9
2018-11-11T08:45:01.851Z,90.7
2018-11-11T08:46:01.100Z,90.5
2018-11-11T08:47:00.232Z,90
2018-11-11T08:47:59.261Z,89.2
2018-11-11T08:48:58.356Z,89.5
2018-11-11T08:49:57.579Z,88.9
2018-11-11T08:50:56.521Z,89.5
2018-11-11T08:51:55.853Z,89.2
2018-11-11T08:52:54.786Z,88.6
2018-11-11T08:53:54.125Z,87.9
2018-11-11T08:54:53.077Z,87.8
2018-11-11T08:55:52.189Z,88.3
2018-11-11T08:56:51.197Z,87.1
2018-11-11T08:57:50.481Z,87.1
2018-11-11T08:58:49.439Z,87.3
2018-11-11T08:59:48.681Z,86.9
2018-11-11T09:00:48.012Z,87.2
2018-11-11T09:01:46.842Z,86.8
2018-11-11T09:02:46.082Z,87.2
2018-11-11T09:03:45.545Z,86.9
2018-11-11T09:04:44.384Z,86.8
2018-11-11T09:05:14.654Z,86.8
2018-11-11T09:06:42.798Z,86.7
2018-11-11T09:07:42.036Z,87.3
2018-11-11T09:08:40.882Z,86.7
2018-11-11T09:09:40.223Z,86.4
2018-11-11T09:10:39.449Z,85.9
2018-11-11T09:11:38.490Z,86.5
2018-11-11T09:12:37.293Z,86.8
2018-11-11T09:13:36.742Z,86.6
2018-11-11T09:14:35.862Z,86.2
2018-11-11T09:15:34.875Z,85.1
2018-11-11T09:16:34.207Z,85
2018-11-11T09:17:33.218Z,85.2
2018-11-11T09:18:32.370Z,84.7
2018-11-11T09:19:31.489Z,83.9
2018-11-11T09:20:30.318Z,84.1
2018-11-11T09:21:29.885Z,83.9
2018-11-11T09:22:28.863Z,83.8
2018-11-11T09:23:27.802Z,83.9
2018-11-11T09:24:27.187Z,83.2
2018-11-11T09:25:26.381Z,84.2
2018-11-11T09:26:25.402Z,83.6
2018-11-11T09:27:24.228Z,83.3
2018-11-11T09:28:23.346Z,84
2018-11-11T09:29:22.688Z,83.9
2018-11-11T09:30:22.019Z,83.6
2018-11-11T09:31:20.773Z,83.7
2018-11-11T09:32:20.229Z,83.8
2018-11-11T09:33:19.068Z,83.6
2018-11-11T09:34:18.687Z,83.2
2018-11-11T09:35:17.749Z,83.2
2018-11-11T09:36:16.632Z,83.3
2018-11-11T09:37:15.969Z,83.3
2018-11-11T09:38:14.954Z,83.5
2018-11-11T09:39:14.745Z,82.7
2018-11-11T09:40:13.370Z,82.7
2018-11-11T09:41:12.387Z,82.4
2018-11-11T09:42:11.328Z,83
2018-11-11T09:42:41.831Z,83
2018-11-11T09:43:12.403Z,82.4
2018-11-11T09:43:42.558Z,82.4
2018-11-11T09:44:12.813Z,82.5
2018-11-11T09:45:09.025Z,82.9
2018-11-11T09:46:07.855Z,82.8
2018-11-11T09:47:07.317Z,82.4
2018-11-11T09:48:06.437Z,82.7
2018-11-11T09:49:05.272Z,82.7
2018-11-11T09:50:04.498Z,82.9
2018-11-11T09:51:04.011Z,83.6
2018-11-11T09:52:02.844Z,84.2
2018-11-11T09:54:01.217Z,82.9
2018-11-11T09:55:00.450Z,83.1
2018-11-11T09:55:59.279Z,82.9
2018-11-11T09:56:58.730Z,83.4
2018-11-11T09:57:57.961Z,83.3
2018-11-11T09:58:56.793Z,83.3
2018-11-11T09:59:56.350Z,83.2
2018-11-11T10:00:55.298Z,83.1
2018-11-11T10:01:54.421Z,83.2
2018-11-11T10:02:53.647Z,82.9
2018-11-11T10:03:52.477Z,83.4
2018-11-11T10:04:51.543Z,83.6
2018-11-11T10:05:50.804Z,83.8
2018-11-11T10:06:50.737Z,83.4
2018-11-11T10:07:49.170Z,83.5
2018-11-11T10:08:48.469Z,83.4
2018-11-11T10:09:47.194Z,84.9
2018-11-11T10:10:46.420Z,84.8
2018-11-11T10:11:45.756Z,85.4
2018-11-11T10:12:45.130Z,85.6
2018-11-11T10:13:44.323Z,86.1
2018-11-11T10:14:14.870Z,86.1
2018-11-11T10:14:45.520Z,86.6
2018-11-11T10:15:16.070Z,86.6
2018-11-11T10:16:41.357Z,87.2
2018-11-11T10:17:40.694Z,87.3
2018-11-11T10:18:39.530Z,87.8
2018-11-11T10:19:38.756Z,88.3
2018-11-11T10:20:38.175Z,88.8
2018-11-11T10:21:37.033Z,88.9
2018-11-11T10:22:36.363Z,88.9
2018-11-11T10:23:35.304Z,89.9
2018-11-11T10:24:34.649Z,90.2
2018-11-11T10:25:04.803Z,90.2
2018-11-11T10:25:35.455Z,90.7
2018-11-11T10:26:33.171Z,91.2
2018-11-11T10:27:32.261Z,91.6
2018-11-11T10:28:31.147Z,92.2
2018-11-11T10:30:29.544Z,92.3
2018-11-11T10:31:28.723Z,92.5
2018-11-11T10:32:27.561Z,92.8
2018-11-11T10:33:27.052Z,93.1
2018-11-11T10:34:25.765Z,93.2
2018-11-11T10:35:24.886Z,93.2
2018-11-11T10:36:24.221Z,93.4
2018-11-11T10:37:23.673Z,93.4
2018-11-11T10:38:22.497Z,93.7
2018-11-11T10:39:21.930Z,94
2018-11-11T10:40:21.159Z,93.8
2018-11-11T10:44:17.433Z,94.3
2018-11-11T10:45:16.540Z,94.5
2018-11-11T10:46:15.769Z,94.6
2018-11-11T10:47:15.000Z,94.8
2018-11-11T10:48:14.229Z,95
2018-11-11T10:49:13.058Z,95
2018-11-11T10:50:12.393Z,95
2018-11-11T10:51:11.331Z,95.1
2018-11-11T10:52:10.663Z,95.4
2018-11-11T10:53:09.600Z,95.5
2018-11-11T10:54:08.991Z,95.4
2018-11-11T10:55:08.052Z,96.2
2018-11-11T10:57:06.165Z,96.2
2018-11-11T10:58:05.182Z,96.3
2018-11-11T10:59:04.520Z,96.4
2018-11-11T11:00:03.872Z,96.2
2018-11-11T11:01:02.787Z,96.1
2018-11-11T11:02:01.750Z,96.3
2018-11-11T11:03:01.270Z,96.1
2018-11-11T11:04:00.287Z,96.3
2018-11-11T11:04:59.516Z,96.4
2018-11-11T11:05:58.294Z,96.3
2018-11-11T11:06:57.418Z,96.1
2018-11-11T11:07:56.757Z,96.1
2018-11-11T11:08:55.779Z,96.2
2018-11-11T11:09:55.006Z,95.9
2018-11-11T11:11:53.398Z,95.9
2018-11-11T11:12:52.355Z,96
2018-11-11T11:14:50.965Z,96.1
2018-11-11T11:15:49.736Z,95.7
2018-11-11T11:16:48.958Z,95.7
2018-11-11T11:17:48.184Z,95.5
2018-11-11T11:18:47.521Z,95.5
2018-11-11T11:19:46.351Z,95.7
2018-11-11T11:20:16.894Z,95.7
2018-11-11T11:20:47.329Z,95.7
2018-11-11T11:21:44.666Z,95.5
2018-11-11T11:22:44.110Z,95.4
2018-11-11T11:23:42.930Z,95.5
2018-11-11T11:24:42.369Z,95.5
2018-11-11T11:25:41.461Z,95.3
2018-11-11T11:26:40.403Z,94.9
2018-11-11T11:27:39.340Z,94.8
2018-11-11T11:28:38.568Z,94.8
2018-11-11T11:29:38.045Z,94.6
2018-11-11T11:30:36.876Z,94.7
2018-11-11T11:31:07.106Z,94.7
2018-11-11T11:31:37.968Z,94.3
2018-11-11T11:32:35.419Z,94.6
2018-11-11T11:33:34.178Z,94.9
2018-11-11T11:34:33.507Z,94.8
2018-11-11T11:35:32.953Z,94.8
2018-11-11T11:36:31.852Z,94.6
2018-11-11T11:37:30.865Z,94.1
2018-11-11T11:38:30.308Z,94.1
2018-11-11T11:40:28.422Z,93.7
2018-11-11T11:41:27.993Z,93.9
2018-11-11T11:42:26.610Z,93.8
2018-11-11T11:44:24.829Z,93.2
2018-11-11T11:45:23.950Z,93
2018-11-11T11:47:22.668Z,91.7
2018-11-11T11:48:21.420Z,91.8
2018-11-11T11:49:20.746Z,91.8
2018-11-11T11:49:51.559Z,91.8
2018-11-11T11:51:19.261Z,91.2
2018-11-11T11:51:50.011Z,91.2
2018-11-11T11:52:20.438Z,89.7
2018-11-11T11:53:17.489Z,89.1
2018-11-11T11:54:16.331Z,88.2
2018-11-11T11:55:15.775Z,88.7
2018-11-11T11:56:14.496Z,87.8
2018-11-11T11:57:14.012Z,87.8
2018-11-11T11:58:13.150Z,88
2018-11-11T11:59:12.255Z,88.1
2018-11-11T11:59:42.683Z,88.1
2018-11-11T12:02:09.688Z,86.8
2018-11-11T12:02:39.881Z,86.8
2018-11-11T12:03:10.130Z,86.8
2018-11-11T12:03:40.278Z,86.8
2018-11-11T12:04:10.818Z,86
2018-11-11T12:05:07.135Z,85.9
2018-11-11T12:06:06.367Z,85.6
2018-11-11T12:07:05.712Z,85.6
2018-11-11T12:08:04.664Z,86.6
2018-11-11T12:09:03.729Z,86.1
2018-11-11T12:10:02.604Z,85.9
2018-11-11T12:11:01.734Z,86
2018-11-11T12:12:01.375Z,86.6
2018-11-11T12:12:31.934Z,86.6
2018-11-11T12:13:02.586Z,86.4
2018-11-11T12:13:33.165Z,86.4
2018-11-11T12:14:03.715Z,86.2
2018-11-11T12:14:34.157Z,86.2
2018-11-11T12:15:57.752Z,87
2018-11-11T12:16:56.967Z,85.4
2018-11-11T12:17:56.034Z,85.5
2018-11-11T12:18:55.152Z,84.2
2018-11-11T12:19:54.593Z,83.6
2018-11-11T12:20:53.603Z,83.9
2018-11-11T12:21:53.038Z,82.7
2018-11-11T12:22:51.853Z,82.5
2018-11-11T12:23:51.194Z,82.5
2018-11-11T12:24:50.130Z,82
2018-11-11T12:25:49.359Z,82.5
2018-11-11T12:26:48.381Z,82.6
2018-11-11T12:27:47.729Z,82.4
2018-11-11T12:28:46.859Z,81.1
2018-11-11T12:29:46.074Z,81.5
2018-11-11T12:30:45.563Z,81.6
2018-11-11T12:31:15.894Z,81.6
2018-11-11T12:32:43.413Z,80.8
2018-11-11T12:33:42.635Z,80.9
2018-11-11T12:34:41.869Z,79.6
2018-11-11T12:35:41.224Z,79.3
2018-11-11T12:36:40.170Z,79.2
2018-11-11T12:37:39.607Z,79.4
2018-11-11T12:38:38.831Z,79.5
2018-11-11T12:39:37.931Z,78.6
2018-11-11T12:40:36.992Z,78.9
2018-11-11T12:41:36.449Z,79.5
2018-11-11T12:42:07.060Z,79.5
2018-11-11T12:42:37.487Z,79.1
2018-11-11T12:43:07.986Z,79.1
2018-11-11T12:43:38.591Z,79.3
2018-11-11T12:44:08.737Z,79.3
2018-11-11T12:45:33.016Z,79
2018-11-11T12:46:31.877Z,79.3
2018-11-11T12:47:31.505Z,79.5
2018-11-11T12:48:30.325Z,79.4
2018-11-11T12:49:29.768Z,78.9
2018-11-11T12:50:29.436Z,78.8
2018-11-11T12:51:28.059Z,78.2
2018-11-11T12:52:26.787Z,78.4
2018-11-11T12:53:26.117Z,78
2018-11-11T12:53:56.659Z,78
2018-11-11T12:55:24.592Z,77.5
2018-11-11T12:56:23.829Z,76.9
2018-11-11T12:58:22.049Z,77
2018-11-11T12:59:21.386Z,76.7
2018-11-11T13:00:20.823Z,76.8
2018-11-11T13:01:19.834Z,76.4